createdAt,value
2023-01-03T00:00:51.155Z,101326.25
2023-01-03T00:03:18.177Z,101345.41
2023-01-03T00:05:47.291Z,101332.41
2023-01-03T00:08:15.646Z,101345.53
2023-01-03T00:10:42.807Z,101341.28
2023-01-03T00:13:09.823Z,101341.38
2023-01-03T00:15:38.504Z,101342.28
2023-01-03T00:18:05.495Z,101351.81
2023-01-03T00:20:34.673Z,101351.72
2023-01-03T00:23:02.239Z,101356.03
2023-01-03T00:25:30.335Z,101365.59
2023-01-03T00:27:57.309Z,101362.97
2023-01-03T00:30:24.449Z,101361.25
2023-01-03T00:32:51.404Z,101369.16
2023-01-03T00:35:18.512Z,101376.16
2023-01-03T00:37:45.460Z,101384.84
2023-01-03T00:40:12.429Z,101388.34
2023-01-03T00:42:59.280Z,101384.06
2023-01-03T00:45:28.107Z,101392.00
2023-01-03T00:47:56.819Z,101392.06
2023-01-03T00:50:23.703Z,101388.59
2023-01-03T00:52:50.675Z,101405.97
2023-01-03T00:55:17.598Z,101403.28
2023-01-03T00:57:44.538Z,101411.94
2023-01-03T01:00:12.115Z,101414.47
2023-01-03T01:02:39.215Z,101420.53
2023-01-03T01:05:06.519Z,101416.06
2023-01-03T01:07:33.390Z,101423.69
2023-01-03T01:10:00.309Z,101435.59
2023-01-03T01:12:27.212Z,101436.16
2023-01-03T01:14:54.910Z,101439.47
2023-01-03T01:17:23.084Z,101444.38
2023-01-03T01:19:50.196Z,101457.91
2023-01-03T01:22:17.267Z,101459.31
2023-01-03T01:24:44.200Z,101467.75
2023-01-03T01:27:11.296Z,101477.06
2023-01-03T01:29:39.070Z,101480.31
2023-01-03T01:32:07.217Z,101474.88
2023-01-03T01:34:34.448Z,101472.88
2023-01-03T01:37:01.455Z,101473.50
2023-01-03T01:39:30.033Z,101482.84
2023-01-03T01:42:30.278Z,101493.88
2023-01-03T01:45:02.722Z,101488.44
2023-01-03T01:48:05.371Z,101494.34
2023-01-03T01:50:47.759Z,101497.66
2023-01-03T01:53:33.509Z,101501.81
2023-01-03T01:56:11.353Z,101493.03
2023-01-03T01:58:42.960Z,101482.50
2023-01-03T02:01:14.711Z,101493.63
2023-01-03T02:03:43.814Z,101505.69
2023-01-03T02:06:14.639Z,101508.22
2023-01-03T02:08:41.625Z,101504.66
2023-01-03T02:11:38.811Z,101502.78
2023-01-03T02:14:27.286Z,101509.47
2023-01-03T02:17:32.586Z,101510.16
2023-01-03T02:20:08.455Z,101515.19
2023-01-03T02:23:30.117Z,101527.06
2023-01-03T02:26:15.393Z,101527.03
2023-01-03T02:28:45.207Z,101535.53
2023-01-03T02:31:43.383Z,101545.69
2023-01-03T02:34:28.757Z,101548.97
2023-01-03T02:37:17.251Z,101559.25
2023-01-03T02:40:00.310Z,101547.72
2023-01-03T02:43:02.262Z,101554.50
2023-01-03T02:46:13.941Z,101553.47
2023-01-03T02:49:04.123Z,101550.63
2023-01-03T02:51:41.935Z,101562.59
2023-01-03T02:54:17.238Z,101559.84
2023-01-03T02:57:06.271Z,101556.19
2023-01-03T03:00:03.834Z,101568.94
2023-01-03T03:02:35.445Z,101564.38
2023-01-03T03:05:09.247Z,101586.72
2023-01-03T03:07:41.961Z,101582.31
2023-01-03T03:10:30.372Z,101575.34
2023-01-03T03:13:13.759Z,101583.06
2023-01-03T03:16:09.393Z,101595.13
2023-01-03T03:19:00.959Z,101583.72
2023-01-03T03:21:53.289Z,101587.81
2023-01-03T03:24:45.236Z,101591.09
2023-01-03T03:27:33.481Z,101584.03
2023-01-03T03:30:04.472Z,101591.63
2023-01-03T03:32:33.694Z,101598.47
2023-01-03T03:35:03.611Z,101597.56
2023-01-03T03:37:32.953Z,101598.25
2023-01-03T03:40:18.858Z,101604.25
2023-01-03T03:43:24.737Z,101614.41
2023-01-03T03:46:10.586Z,101607.25
2023-01-03T03:49:06.527Z,101608.84
2023-01-03T03:51:36.972Z,101608.56
2023-01-03T03:54:11.802Z,101621.41
2023-01-03T03:56:41.776Z,101620.38
2023-01-03T03:59:10.611Z,101635.78
2023-01-03T04:01:42.079Z,101628.81
2023-01-03T04:04:18.759Z,101629.47
2023-01-03T04:06:51.335Z,101640.59
2023-01-03T04:09:19.357Z,101638.75
2023-01-03T04:11:46.528Z,101648.94
2023-01-03T04:14:13.761Z,101656.66
2023-01-03T04:16:43.315Z,101653.09
2023-01-03T04:19:10.323Z,101661.69
2023-01-03T04:21:37.325Z,101664.22
2023-01-03T04:24:05.556Z,101659.78
2023-01-03T04:26:32.612Z,101669.19
2023-01-03T04:28:59.592Z,101662.19
2023-01-03T04:31:26.692Z,101666.41
2023-01-03T04:33:54.086Z,101673.31
2023-01-03T04:36:22.387Z,101678.50
2023-01-03T04:38:49.387Z,101685.31
2023-01-03T04:41:16.775Z,101679.91
2023-01-03T04:44:02.266Z,101683.31
2023-01-03T04:46:30.351Z,101696.19
2023-01-03T04:48:57.324Z,101697.84
2023-01-03T04:51:25.485Z,101698.53
2023-01-03T04:53:52.473Z,101701.78
2023-01-03T04:56:25.891Z,101697.19
2023-01-03T04:58:52.788Z,101700.63
2023-01-03T05:01:19.967Z,101706.53
2023-01-03T05:03:47.067Z,101708.16
2023-01-03T05:06:14.674Z,101712.28
2023-01-03T05:08:44.635Z,101714.78
2023-01-03T05:11:11.531Z,101718.13
2023-01-03T05:13:38.427Z,101722.41
2023-01-03T05:16:11.099Z,101730.19
2023-01-03T05:18:39.168Z,101733.53
2023-01-03T05:21:37.676Z,101719.69
2023-01-03T05:24:24.379Z,101728.28
2023-01-03T05:26:52.628Z,101734.19
2023-01-03T05:29:22.029Z,101729.75
2023-01-03T05:31:49.610Z,101721.97
2023-01-03T05:34:30.456Z,101719.31
2023-01-03T05:40:45.396Z,101725.06
2023-01-03T05:43:35.264Z,101731.03
2023-01-03T05:47:13.778Z,101740.34
2023-01-03T05:50:22.251Z,101749.81
2023-01-03T05:53:31.280Z,101741.97
2023-01-03T05:56:20.306Z,101754.09
2023-01-03T05:58:56.723Z,101751.44
2023-01-03T06:05:00.807Z,101756.38
2023-01-03T06:07:49.001Z,101776.16
2023-01-03T06:10:28.246Z,101771.78
2023-01-03T06:13:39.491Z,101766.44
2023-01-03T06:17:06.612Z,101766.38
2023-01-03T06:19:52.262Z,101777.22
2023-01-03T06:22:33.544Z,101782.31
2023-01-03T06:25:21.913Z,101775.31
2023-01-03T06:28:06.715Z,101784.78
2023-01-03T06:31:46.984Z,101778.53
2023-01-03T06:35:09.090Z,101790.50
2023-01-03T06:38:23.845Z,101792.13
2023-01-03T06:41:12.251Z,101792.84
2023-01-03T06:43:51.196Z,101798.84
2023-01-03T06:46:56.630Z,101788.56
2023-01-03T06:50:08.123Z,101796.03
2023-01-03T06:53:10.224Z,101797.66
2023-01-03T06:56:00.290Z,101803.72
2023-01-03T06:58:58.314Z,101809.88
2023-01-03T07:01:58.524Z,101821.13
2023-01-03T07:04:54.696Z,101823.63
2023-01-03T07:07:56.487Z,101826.03
2023-01-03T07:10:43.757Z,101819.81
2023-01-03T07:13:53.765Z,101838.16
2023-01-03T07:16:37.602Z,101831.13
2023-01-03T07:19:24.669Z,101837.19
2023-01-03T07:25:07.416Z,101842.22
2023-01-03T07:28:09.179Z,101841.91
2023-01-03T07:31:18.174Z,101854.03
2023-01-03T07:33:59.081Z,101849.81
2023-01-03T07:36:43.419Z,101851.50
2023-01-03T07:39:13.972Z,101855.88
2023-01-03T07:42:07.446Z,101857.72
2023-01-03T07:44:50.509Z,101853.69
2023-01-03T07:47:35.982Z,101863.50
2023-01-03T07:50:16.108Z,101862.81
2023-01-03T07:52:54.487Z,101866.81
2023-01-03T07:55:48.868Z,101862.88
2023-01-03T07:58:30.169Z,101855.34
2023-01-03T08:01:37.708Z,101861.41
2023-01-03T08:04:19.498Z,101864.91
2023-01-03T08:07:06.152Z,101874.38
2023-01-03T08:10:10.972Z,101877.50
2023-01-03T08:13:16.502Z,101873.78
2023-01-03T08:16:06.601Z,101886.28
2023-01-03T08:19:06.852Z,101881.81
2023-01-03T08:22:11.218Z,101886.69
2023-01-03T08:25:10.396Z,101896.06
2023-01-03T08:28:09.863Z,101892.00
2023-01-03T08:31:05.432Z,101900.81
2023-01-03T08:34:16.774Z,101900.69
2023-01-03T08:37:04.413Z,101904.84
2023-01-03T08:40:41.468Z,101910.66
2023-01-03T08:43:38.425Z,101900.03
2023-01-03T08:46:37.234Z,101906.47
2023-01-03T08:49:41.963Z,101904.09
2023-01-03T08:52:18.014Z,101901.75
2023-01-03T08:54:57.664Z,101902.78
2023-01-03T08:57:42.323Z,101909.16
2023-01-03T09:00:24.676Z,101909.56
2023-01-03T09:03:03.511Z,101903.81
2023-01-03T09:05:50.700Z,101919.72
2023-01-03T09:08:45.090Z,101919.91
2023-01-03T09:11:31.494Z,101923.63
2023-01-03T09:14:20.712Z,101931.59
2023-01-03T09:17:15.999Z,101925.75
2023-01-03T09:19:50.320Z,101935.53
2023-01-03T09:22:52.829Z,101941.44
2023-01-03T09:26:12.740Z,101945.78
2023-01-03T09:29:14.162Z,101946.38
2023-01-03T09:31:53.549Z,101943.22
2023-01-03T09:34:27.235Z,101946.75
2023-01-03T09:37:13.254Z,101945.09
2023-01-03T09:40:09.175Z,101940.19
2023-01-03T09:43:13.666Z,101947.47
2023-01-03T09:46:43.692Z,101950.91
2023-01-03T09:52:55.609Z,101937.56
2023-01-03T09:56:08.709Z,101949.66
2023-01-03T09:59:14.465Z,101943.00
2023-01-03T10:06:26.494Z,101942.25
2023-01-03T10:09:42.817Z,101941.91
2023-01-03T10:16:19.481Z,101954.53
2023-01-03T10:19:37.976Z,101950.56
2023-01-03T10:22:32.978Z,101959.06
2023-01-03T10:25:23.171Z,101950.16
2023-01-03T10:32:01.683Z,101960.19
2023-01-03T10:34:35.338Z,101964.63
2023-01-03T10:37:33.735Z,101961.78
2023-01-03T10:40:19.693Z,101962.28
2023-01-03T10:42:59.360Z,101950.78
2023-01-03T10:46:14.785Z,101949.66
2023-01-03T10:49:29.048Z,101948.78
2023-01-03T10:52:32.810Z,101952.63
2023-01-03T10:55:22.323Z,101952.94
2023-01-03T10:58:44.000Z,101948.94
2023-01-03T11:01:32.945Z,101956.00
2023-01-03T11:04:25.431Z,101956.69
2023-01-03T11:07:27.601Z,101949.84
2023-01-03T11:10:14.780Z,101951.75
2023-01-03T11:13:06.832Z,101940.56
2023-01-03T11:15:53.146Z,101947.94
2023-01-03T11:18:40.249Z,101941.06
2023-01-03T11:21:55.960Z,101937.50
2023-01-03T11:28:53.269Z,101938.53
2023-01-03T11:32:00.559Z,101947.34
2023-01-03T11:35:25.848Z,101951.50
2023-01-03T11:37:58.436Z,101954.94
2023-01-03T11:40:44.676Z,101951.22
2023-01-03T11:43:39.584Z,101952.63
2023-01-03T11:46:49.256Z,101946.78
2023-01-03T11:49:44.219Z,101939.34
2023-01-03T11:52:23.139Z,101945.63
2023-01-03T11:55:37.495Z,101946.28
2023-01-03T11:58:13.698Z,101946.16
2023-01-03T12:01:24.951Z,101944.75
2023-01-03T12:04:19.902Z,101947.28
2023-01-03T12:07:45.640Z,101943.78
2023-01-03T12:10:13.948Z,101944.53
2023-01-03T12:13:11.659Z,101939.06
2023-01-03T12:16:03.674Z,101938.19
2023-01-03T12:18:55.311Z,101949.13
2023-01-03T12:21:48.668Z,101955.63
2023-01-03T12:24:39.444Z,101954.59
2023-01-03T12:27:17.853Z,101952.91
2023-01-03T12:29:59.355Z,101948.38
2023-01-03T12:32:44.994Z,101951.69
2023-01-03T12:35:37.495Z,101943.63
2023-01-03T12:38:06.305Z,101953.16
2023-01-03T12:40:44.147Z,101955.91
2023-01-03T12:43:40.004Z,101943.94
2023-01-03T12:46:15.856Z,101944.25
2023-01-03T12:48:50.177Z,101934.19
2023-01-03T12:51:24.570Z,101937.63
2023-01-03T12:55:00.280Z,101935.72
2023-01-03T12:57:45.800Z,101943.66
2023-01-03T13:01:23.330Z,101944.69
2023-01-03T13:04:03.098Z,101948.94
2023-01-03T13:06:41.299Z,101944.41
2023-01-03T13:09:31.784Z,101947.75
2023-01-03T13:12:15.780Z,101942.41
2023-01-03T13:15:05.573Z,101941.66
2023-01-03T13:17:49.465Z,101936.38
2023-01-03T13:20:31.688Z,101936.56
2023-01-03T13:23:21.539Z,101922.13
2023-01-03T13:26:25.985Z,101907.34
2023-01-03T13:29:32.347Z,101901.53
2023-01-03T13:32:15.147Z,101909.56
2023-01-03T13:34:42.183Z,101912.25
2023-01-03T13:37:16.255Z,101921.13
2023-01-03T13:39:52.205Z,101926.72
2023-01-03T13:42:39.959Z,101926.13
2023-01-03T13:45:40.261Z,101926.56
2023-01-03T13:48:17.157Z,101921.00
2023-01-03T13:51:04.722Z,101924.09
2023-01-03T13:53:39.218Z,101914.25
2023-01-03T13:56:15.193Z,101909.63
2023-01-03T13:58:51.781Z,101917.13
2023-01-03T14:01:43.445Z,101907.28
2023-01-03T14:05:06.177Z,101924.22
2023-01-03T14:08:09.235Z,101925.59
2023-01-03T14:10:59.508Z,101923.66
2023-01-03T14:13:47.291Z,101930.34
2023-01-03T14:16:31.042Z,101929.25
2023-01-03T14:19:30.361Z,101930.75
2023-01-03T14:22:30.311Z,101932.22
2023-01-03T14:24:59.652Z,101920.03
2023-01-03T14:27:39.491Z,101918.09
2023-01-03T14:30:24.439Z,101935.22
2023-01-03T14:32:51.461Z,101935.88
2023-01-03T14:35:40.248Z,101940.88
2023-01-03T14:38:29.457Z,101941.44
2023-01-03T14:40:57.329Z,101945.50
2023-01-03T14:43:29.529Z,101945.31
2023-01-03T14:46:03.798Z,101952.06
2023-01-03T14:48:30.776Z,101941.44
2023-01-03T14:51:02.715Z,101941.25
2023-01-03T14:53:31.883Z,101948.78
2023-01-03T14:56:00.035Z,101946.84
2023-01-03T14:58:40.748Z,101948.25
2023-01-03T15:01:11.242Z,101947.22
2023-01-03T15:03:44.316Z,101944.22
2023-01-03T15:06:30.925Z,101949.84
2023-01-03T15:09:02.204Z,101953.00
2023-01-03T15:11:34.023Z,101945.63
2023-01-03T15:14:05.883Z,101942.78
2023-01-03T15:16:40.319Z,101953.16
2023-01-03T15:19:28.865Z,101952.88
2023-01-03T15:22:19.712Z,101962.00
2023-01-03T15:24:51.040Z,101949.59
2023-01-03T15:27:43.016Z,101964.84
2023-01-03T15:30:15.970Z,101964.50
2023-01-03T15:33:03.191Z,101961.47
2023-01-03T15:35:43.355Z,101966.28
2023-01-03T15:38:31.883Z,101971.97
2023-01-03T15:41:00.426Z,101974.22
2023-01-03T15:43:37.138Z,101975.69
2023-01-03T15:46:11.783Z,101969.44
2023-01-03T15:48:39.226Z,101974.34
2023-01-03T15:51:06.884Z,101970.72
2023-01-03T15:53:44.359Z,101980.75
2023-01-03T15:56:24.894Z,101972.63
2023-01-03T15:58:56.343Z,101987.09
2023-01-03T16:01:24.756Z,101979.81
2023-01-03T16:03:52.724Z,101983.81
2023-01-03T16:06:19.818Z,101987.88
2023-01-03T16:08:47.258Z,101982.50
2023-01-03T16:11:33.459Z,101984.13
2023-01-03T16:14:05.030Z,101979.75
2023-01-03T16:16:38.414Z,101983.03
2023-01-03T16:19:06.928Z,101976.97
2023-01-03T16:21:34.540Z,101988.94
2023-01-03T16:24:02.705Z,101979.31
2023-01-03T16:26:29.632Z,101972.28
2023-01-03T16:28:56.578Z,101975.59
2023-01-03T16:31:32.963Z,101978.88
2023-01-03T16:34:00.533Z,101974.34
2023-01-03T16:36:41.397Z,101973.19
2023-01-03T16:39:22.791Z,101978.19
2023-01-03T16:42:10.097Z,101980.59
2023-01-03T16:44:46.541Z,101979.59
2023-01-03T16:47:22.793Z,101988.97
2023-01-03T16:49:55.914Z,101981.03
2023-01-03T16:52:28.104Z,101989.63
2023-01-03T16:54:55.731Z,101999.94
2023-01-03T16:57:23.133Z,101996.38
2023-01-03T16:59:50.552Z,101998.88
2023-01-03T17:02:17.638Z,102000.47
2023-01-03T17:04:44.761Z,102000.47
2023-01-03T17:07:21.999Z,101996.91
2023-01-03T17:09:51.211Z,101985.66
2023-01-03T17:12:22.554Z,101989.94
2023-01-03T17:14:50.200Z,101992.53
2023-01-03T17:17:20.721Z,101990.84
2023-01-03T17:20:05.742Z,101998.69
2023-01-03T17:22:33.440Z,101989.34
2023-01-03T17:25:00.408Z,101991.31
2023-01-03T17:27:32.449Z,101991.63
2023-01-03T17:30:07.032Z,102000.56
2023-01-03T17:32:34.219Z,102001.69
2023-01-03T17:35:03.271Z,102009.44
2023-01-03T17:37:37.042Z,102008.56
2023-01-03T17:40:29.369Z,102004.03
2023-01-03T17:43:00.422Z,102003.84
2023-01-03T17:45:45.777Z,102004.47
2023-01-03T17:48:31.703Z,102002.69
2023-01-03T17:50:59.519Z,101996.72
2023-01-03T17:53:26.867Z,102000.28
2023-01-03T17:55:53.797Z,101996.19
2023-01-03T17:58:30.781Z,102004.13
2023-01-03T18:00:57.811Z,101996.47
2023-01-03T18:03:24.866Z,101999.09
2023-01-03T18:05:52.255Z,101998.22
2023-01-03T18:08:21.559Z,101990.47
2023-01-03T18:10:49.402Z,101995.72
2023-01-03T18:13:31.174Z,101991.44
2023-01-03T18:15:58.932Z,101990.66
2023-01-03T18:18:27.702Z,101984.50
2023-01-03T18:20:56.031Z,101985.28
2023-01-03T18:23:32.463Z,101984.34
2023-01-03T18:26:04.680Z,101988.63
2023-01-03T18:28:31.998Z,101976.41
2023-01-03T18:30:59.006Z,101984.78
2023-01-03T18:33:26.322Z,101986.19
2023-01-03T18:35:54.026Z,101976.41
2023-01-03T18:38:34.083Z,101982.09
2023-01-03T18:41:05.415Z,101980.06
2023-01-03T18:43:33.597Z,101973.72
2023-01-03T18:46:00.947Z,101972.56
2023-01-03T18:48:28.004Z,101969.78
2023-01-03T18:50:58.878Z,101971.31
2023-01-03T18:53:31.278Z,101974.72
2023-01-03T18:55:59.418Z,101970.34
2023-01-03T18:58:38.276Z,101971.94
2023-01-03T19:01:07.548Z,101968.38
2023-01-03T19:03:35.958Z,101970.06
2023-01-03T19:06:16.296Z,101969.97
2023-01-03T19:08:43.561Z,101983.88
2023-01-03T19:11:18.838Z,101982.19
2023-01-03T19:13:50.810Z,101976.22
2023-01-03T19:16:23.714Z,101980.88
2023-01-03T19:18:51.611Z,101986.47
2023-01-03T19:21:21.358Z,101991.38
2023-01-03T19:24:05.076Z,101979.19
2023-01-03T19:26:43.605Z,101976.41
2023-01-03T19:29:26.464Z,101967.47
2023-01-03T19:31:56.270Z,101973.00
2023-01-03T19:34:26.124Z,101961.94
2023-01-03T19:36:53.665Z,101965.47
2023-01-03T19:39:25.120Z,101955.13
2023-01-03T19:42:17.365Z,101949.91
2023-01-03T19:44:44.452Z,101946.16
2023-01-03T19:47:17.506Z,101945.81
2023-01-03T19:49:49.458Z,101933.59
2023-01-03T19:52:17.564Z,101937.81
2023-01-03T19:54:44.593Z,101938.75
2023-01-03T19:57:25.157Z,101938.84
2023-01-03T19:59:57.203Z,101927.88
2023-01-03T20:02:52.688Z,101927.16
2023-01-03T20:05:23.434Z,101927.09
2023-01-03T20:07:51.130Z,101926.00
2023-01-03T20:10:22.375Z,101926.81
2023-01-03T20:12:54.219Z,101929.56
2023-01-03T20:15:33.855Z,101922.19
2023-01-03T20:18:01.014Z,101931.06
2023-01-03T20:20:33.103Z,101924.47
2023-01-03T20:23:06.751Z,101929.19
2023-01-03T20:25:36.865Z,101929.31
2023-01-03T20:28:04.241Z,101922.63
2023-01-03T20:30:33.134Z,101923.63
2023-01-03T20:33:00.541Z,101922.91
2023-01-03T20:38:24.871Z,101910.94
2023-01-03T20:40:53.477Z,101907.47
2023-01-03T20:43:20.579Z,101913.53
2023-01-03T20:45:53.429Z,101917.72
2023-01-03T20:48:25.477Z,101908.72
2023-01-03T20:50:53.398Z,101904.25
2023-01-03T20:53:23.805Z,101905.56
2023-01-03T20:55:51.967Z,101910.22
2023-01-03T20:58:25.719Z,101900.34
2023-01-03T21:00:59.971Z,101914.69
2023-01-03T21:03:31.655Z,101905.16
2023-01-03T21:05:59.081Z,101898.28
2023-01-03T21:08:44.204Z,101909.69
2023-01-03T21:11:13.375Z,101894.38
2023-01-03T21:13:40.610Z,101903.09
2023-01-03T21:16:33.344Z,101895.53
2023-01-03T21:19:22.747Z,101895.75
2023-01-03T21:21:52.999Z,101890.03
2023-01-03T21:24:23.020Z,101894.66
2023-01-03T21:26:50.544Z,101897.47
2023-01-03T21:29:18.288Z,101893.28
2023-01-03T21:31:45.284Z,101885.63
2023-01-03T21:34:21.157Z,101874.63
2023-01-03T21:36:48.674Z,101873.09
2023-01-03T21:39:15.935Z,101874.84
2023-01-03T21:42:01.712Z,101874.13
2023-01-03T21:44:28.754Z,101870.84
2023-01-03T21:46:55.641Z,101869.22
2023-01-03T21:49:22.642Z,101871.19
2023-01-03T21:51:49.614Z,101872.38
2023-01-03T21:54:16.527Z,101881.28
2023-01-03T21:56:47.119Z,101880.63
2023-01-03T21:59:16.122Z,101875.84
2023-01-03T22:02:03.723Z,101876.09
2023-01-03T22:04:31.652Z,101873.75
2023-01-03T22:07:00.882Z,101872.19
2023-01-03T22:09:47.937Z,101877.72
2023-01-03T22:12:16.353Z,101872.78
2023-01-03T22:14:45.247Z,101881.66
2023-01-03T22:17:12.519Z,101871.53
2023-01-03T22:19:39.438Z,101859.63
2023-01-03T22:22:06.379Z,101866.72
2023-01-03T22:24:33.341Z,101859.94
2023-01-03T22:27:00.260Z,101854.66
2023-01-03T22:29:27.187Z,101856.25
2023-01-03T22:31:54.184Z,101857.63
2023-01-03T22:34:21.152Z,101859.03
2023-01-03T22:36:48.632Z,101860.38
2023-01-03T22:39:15.527Z,101858.34
2023-01-03T22:41:42.477Z,101858.06
2023-01-03T22:44:10.569Z,101857.81
2023-01-03T22:46:37.599Z,101850.69
2023-01-03T22:49:04.700Z,101840.19
2023-01-03T22:51:31.581Z,101839.22
2023-01-03T22:53:58.659Z,101840.59
2023-01-03T22:56:25.632Z,101837.44
2023-01-03T22:58:52.509Z,101836.94
2023-01-03T23:01:28.378Z,101839.06
2023-01-03T23:04:03.286Z,101828.38
2023-01-03T23:06:32.085Z,101823.94
2023-01-03T23:09:00.840Z,101822.06
2023-01-03T23:11:51.692Z,101821.03
2023-01-03T23:14:22.749Z,101819.94
2023-01-03T23:16:52.250Z,101824.91
2023-01-03T23:19:26.939Z,101814.28
2023-01-03T23:21:54.562Z,101814.94
2023-01-03T23:24:25.422Z,101811.38
2023-01-03T23:26:55.059Z,101800.88
2023-01-03T23:29:22.795Z,101791.19
2023-01-03T23:31:52.705Z,101791.00
2023-01-03T23:34:22.276Z,101779.59
2023-01-03T23:36:51.540Z,101782.91
2023-01-03T23:39:19.279Z,101768.16
2023-01-03T23:41:46.801Z,101763.69
2023-01-03T23:44:14.221Z,101774.91
2023-01-03T23:46:44.238Z,101771.34
2023-01-03T23:49:14.142Z,101772.16
2023-01-03T23:51:41.750Z,101769.50
2023-01-03T23:54:10.184Z,101766.81
2023-01-03T23:56:38.276Z,101761.47
2023-01-03T23:59:05.703Z,101765.75
